sensor_id;sensor_type;location;lat;lon;timestamp;pressure;altitude;pressure_sealevel;temperature;humidity
54920;BME280;63804;53.120;8.764;2023-03-21T00:00:34;101647.00;;;7.80;82.75
54920;BME280;63804;53.120;8.764;2023-03-21T00:03:00;101644.03;;;7.86;82.25
54920;BME280;63804;53.120;8.764;2023-03-21T00:05:25;101646.00;;;7.82;82.35
54920;BME280;63804;53.120;8.764;2023-03-21T00:07:51;101653.09;;;7.82;82.65
54920;BME280;63804;53.120;8.764;2023-03-21T00:10:23;101647.63;;;7.85;82.17
54920;BME280;63804;53.120;8.764;2023-03-21T00:12:48;101643.88;;;7.73;82.85
54920;BME280;63804;53.120;8.764;2023-03-21T00:15:23;101639.84;;;7.82;82.46
54920;BME280;63804;53.120;8.764;2023-03-21T00:17:52;101642.56;;;7.80;82.58
54920;BME280;63804;53.120;8.764;2023-03-21T00:20:18;101628.50;;;7.80;82.56
54920;BME280;63804;53.120;8.764;2023-03-21T00:22:44;101629.53;;;7.77;82.72
54920;BME280;63804;53.120;8.764;2023-03-21T00:25:10;101628.66;;;7.76;82.62
54920;BME280;63804;53.120;8.764;2023-03-21T00:27:36;101641.81;;;7.78;82.73
54920;BME280;63804;53.120;8.764;2023-03-21T00:30:03;101631.25;;;7.78;82.73
54920;BME280;63804;53.120;8.764;2023-03-21T00:32:29;101629.59;;;7.75;82.77
54920;BME280;63804;53.120;8.764;2023-03-21T00:34:55;101628.44;;;7.81;82.91
54920;BME280;63804;53.120;8.764;2023-03-21T00:37:27;101621.59;;;7.77;83.02
54920;BME280;63804;53.120;8.764;2023-03-21T00:39:53;101623.03;;;7.83;82.68
54920;BME280;63804;53.120;8.764;2023-03-21T00:42:18;101626.63;;;7.82;82.69
54920;BME280;63804;53.120;8.764;2023-03-21T00:44:44;101616.72;;;7.85;82.66
54920;BME280;63804;53.120;8.764;2023-03-21T00:47:12;101613.91;;;7.88;82.62
54920;BME280;63804;53.120;8.764;2023-03-21T00:49:38;101614.84;;;7.87;82.65
54920;BME280;63804;53.120;8.764;2023-03-21T00:52:06;101609.53;;;7.87;82.72
54920;BME280;63804;53.120;8.764;2023-03-21T00:54:33;101606.72;;;7.90;82.59
54920;BME280;63804;53.120;8.764;2023-03-21T00:56:58;101605.97;;;7.88;82.77
54920;BME280;63804;53.120;8.764;2023-03-21T00:59:26;101607.75;;;7.88;82.61
54920;BME280;63804;53.120;8.764;2023-03-21T01:01:51;101603.91;;;7.93;82.86
54920;BME280;63804;53.120;8.764;2023-03-21T01:04:18;101594.44;;;7.89;82.61
54920;BME280;63804;53.120;8.764;2023-03-21T01:06:43;101598.88;;;7.89;82.79
54920;BME280;63804;53.120;8.764;2023-03-21T01:09:13;101589.16;;;7.89;82.63
54920;BME280;63804;53.120;8.764;2023-03-21T01:11:46;101592.13;;;7.83;82.87
54920;BME280;63804;53.120;8.764;2023-03-21T01:14:13;101591.19;;;7.84;83.19
54920;BME280;63804;53.120;8.764;2023-03-21T01:16:39;101582.78;;;7.77;83.17
54920;BME280;63804;53.120;8.764;2023-03-21T01:19:06;101584.19;;;7.83;82.96
54920;BME280;63804;53.120;8.764;2023-03-21T01:21:32;101577.78;;;7.87;82.93
54920;BME280;63804;53.120;8.764;2023-03-21T01:23:58;101583.25;;;7.84;83.04
54920;BME280;63804;53.120;8.764;2023-03-21T01:26:24;101583.25;;;7.84;83.12
54920;BME280;63804;53.120;8.764;2023-03-21T01:28:50;101583.25;;;7.84;83.06
54920;BME280;63804;53.120;8.764;2023-03-21T01:31:16;101577.03;;;7.85;83.20
54920;BME280;63804;53.120;8.764;2023-03-21T01:33:43;101576.66;;;7.91;83.04
54920;BME280;63804;53.120;8.764;2023-03-21T01:36:15;101576.88;;;7.88;82.98
54920;BME280;63804;53.120;8.764;2023-03-21T01:38:41;101578.31;;;7.94;83.14
54920;BME280;63804;53.120;8.764;2023-03-21T01:41:14;101570.53;;;7.91;82.94
54920;BME280;63804;53.120;8.764;2023-03-21T01:43:42;101579.41;;;7.90;82.99
54920;BME280;63804;53.120;8.764;2023-03-21T01:49:25;101576.38;;;7.82;83.62
54920;BME280;63804;53.120;8.764;2023-03-21T01:52:00;101577.72;;;7.89;83.30
54920;BME280;63804;53.120;8.764;2023-03-21T01:54:30;101573.44;;;7.86;83.22
54920;BME280;63804;53.120;8.764;2023-03-21T01:56:57;101575.31;;;7.84;83.51
54920;BME280;63804;53.120;8.764;2023-03-21T01:59:30;101579.41;;;7.90;83.20
54920;BME280;63804;53.120;8.764;2023-03-21T02:02:02;101570.81;;;7.86;83.57
54920;BME280;63804;53.120;8.764;2023-03-21T02:04:34;101569.28;;;7.82;83.68
54920;BME280;63804;53.120;8.764;2023-03-21T02:07:32;101565.69;;;7.83;84.24
54920;BME280;63804;53.120;8.764;2023-03-21T02:10:01;101565.00;;;7.80;84.03
54920;BME280;63804;53.120;8.764;2023-03-21T02:12:29;101556.91;;;7.83;83.86
54920;BME280;63804;53.120;8.764;2023-03-21T02:14:56;101554.09;;;7.86;83.74
54920;BME280;63804;53.120;8.764;2023-03-21T02:31:05;101537.94;;;7.90;84.07
54920;BME280;63804;53.120;8.764;2023-03-21T02:39:14;101535.41;;;7.89;83.98
54920;BME280;63804;53.120;8.764;2023-03-21T02:41:54;101527.34;;;7.90;83.87
54920;BME280;63804;53.120;8.764;2023-03-21T02:44:29;101530.09;;;7.89;84.03
54920;BME280;63804;53.120;8.764;2023-03-21T02:47:04;101532.53;;;7.92;83.91
54920;BME280;63804;53.120;8.764;2023-03-21T02:49:36;101530.19;;;7.87;84.10
54920;BME280;63804;53.120;8.764;2023-03-21T02:52:08;101526.63;;;7.88;83.98
54920;BME280;63804;53.120;8.764;2023-03-21T02:54:37;101528.31;;;7.89;84.34
54920;BME280;63804;53.120;8.764;2023-03-21T02:57:03;101524.88;;;7.87;84.24
54920;BME280;63804;53.120;8.764;2023-03-21T02:59:30;101526.69;;;7.87;84.55
54920;BME280;63804;53.120;8.764;2023-03-21T03:01:57;101533.59;;;7.89;84.33
54920;BME280;63804;53.120;8.764;2023-03-21T03:04:26;101530.94;;;7.89;84.37
54920;BME280;63804;53.120;8.764;2023-03-21T03:07:10;101529.66;;;7.96;84.19
54920;BME280;63804;53.120;8.764;2023-03-21T03:09:59;101529.06;;;7.91;84.31
54920;BME280;63804;53.120;8.764;2023-03-21T03:13:04;101530.41;;;7.98;84.07
54920;BME280;63804;53.120;8.764;2023-03-21T03:15:52;101529.44;;;7.99;83.92
54920;BME280;63804;53.120;8.764;2023-03-21T03:18:36;101528.59;;;7.99;83.86
54920;BME280;63804;53.120;8.764;2023-03-21T03:23:53;101530.94;;;7.89;84.32
54920;BME280;63804;53.120;8.764;2023-03-21T03:28:54;101521.97;;;7.92;84.65
54920;BME280;63804;53.120;8.764;2023-03-21T03:31:29;101519.06;;;7.96;84.34
54920;BME280;63804;53.120;8.764;2023-03-21T03:34:00;101523.31;;;7.99;84.24
54920;BME280;63804;53.120;8.764;2023-03-21T03:36:34;101519.66;;;8.01;84.50
54920;BME280;63804;53.120;8.764;2023-03-21T03:39:05;101522.47;;;7.98;84.22
54920;BME280;63804;53.120;8.764;2023-03-21T03:41:40;101516.22;;;7.99;84.32
54920;BME280;63804;53.120;8.764;2023-03-21T03:44:06;101510.00;;;8.00;84.47
54920;BME280;63804;53.120;8.764;2023-03-21T03:46:40;101517.84;;;8.02;84.42
54920;BME280;63804;53.120;8.764;2023-03-21T03:49:15;101514.53;;;7.98;84.58
54920;BME280;63804;53.120;8.764;2023-03-21T03:51:56;101512.94;;;7.96;84.70
54920;BME280;63804;53.120;8.764;2023-03-21T03:54:27;101502.06;;;8.00;84.68
54920;BME280;63804;53.120;8.764;2023-03-21T03:56:54;101511.13;;;7.96;84.75
54920;BME280;63804;53.120;8.764;2023-03-21T03:59:20;101513.78;;;7.96;84.83
54920;BME280;63804;53.120;8.764;2023-03-21T04:01:50;101512.94;;;7.96;84.69
54920;BME280;63804;53.120;8.764;2023-03-21T04:04:15;101505.16;;;7.93;85.19
54920;BME280;63804;53.120;8.764;2023-03-21T04:06:44;101504.13;;;7.95;84.92
54920;BME280;63804;53.120;8.764;2023-03-21T04:09:16;101512.06;;;7.95;84.92
54920;BME280;63804;53.120;8.764;2023-03-21T04:11:42;101508.72;;;7.92;85.21
54920;BME280;63804;53.120;8.764;2023-03-21T04:14:08;101494.97;;;8.01;84.98
54920;BME280;63804;53.120;8.764;2023-03-21T04:16:34;101494.97;;;8.01;84.71
54920;BME280;63804;53.120;8.764;2023-03-21T04:18:59;101500.44;;;7.98;84.91
54920;BME280;63804;53.120;8.764;2023-03-21T04:21:25;101498.09;;;7.93;85.26
54920;BME280;63804;53.120;8.764;2023-03-21T04:23:52;101496.63;;;7.88;85.72
54920;BME280;63804;53.120;8.764;2023-03-21T04:26:20;101500.78;;;7.92;85.33
54920;BME280;63804;53.120;8.764;2023-03-21T04:28:47;101501.19;;;7.86;85.51
54920;BME280;63804;53.120;8.764;2023-03-21T04:31:12;101500.56;;;7.96;85.24
54920;BME280;63804;53.120;8.764;2023-03-21T04:33:38;101501.41;;;7.97;85.26
54920;BME280;63804;53.120;8.764;2023-03-21T04:36:05;101498.38;;;8.03;84.67
54920;BME280;63804;53.120;8.764;2023-03-21T04:38:35;101496.50;;;8.05;84.96
54920;BME280;63804;53.120;8.764;2023-03-21T04:41:01;101494.22;;;7.99;84.99
54920;BME280;63804;53.120;8.764;2023-03-21T04:43:27;101490.34;;;8.05;84.94
54920;BME280;63804;53.120;8.764;2023-03-21T04:45:53;101491.88;;;8.09;84.57
54920;BME280;63804;53.120;8.764;2023-03-21T04:48:20;101488.28;;;8.10;84.79
54920;BME280;63804;53.120;8.764;2023-03-21T04:50:49;101491.03;;;8.08;84.49
54920;BME280;63804;53.120;8.764;2023-03-21T04:53:16;101486.75;;;8.06;84.99
54920;BME280;63804;53.120;8.764;2023-03-21T04:55:41;101482.91;;;8.11;84.62
54920;BME280;63804;53.120;8.764;2023-03-21T04:58:07;101484.13;;;8.06;84.78
54920;BME280;63804;53.120;8.764;2023-03-21T05:00:32;101479.94;;;8.01;84.99
54920;BME280;63804;53.120;8.764;2023-03-21T05:03:04;101485.25;;;8.01;85.10
54920;BME280;63804;53.120;8.764;2023-03-21T05:05:36;101476.75;;;8.11;84.66
54920;BME280;63804;53.120;8.764;2023-03-21T05:08:03;101472.34;;;8.11;84.58
54920;BME280;63804;53.120;8.764;2023-03-21T05:10:29;101470.16;;;8.04;84.75
54920;BME280;63804;53.120;8.764;2023-03-21T05:12:54;101478.16;;;8.02;85.01
54920;BME280;63804;53.120;8.764;2023-03-21T05:15:20;101474.38;;;8.06;84.99
54920;BME280;63804;53.120;8.764;2023-03-21T05:17:45;101479.59;;;8.08;84.81
54920;BME280;63804;53.120;8.764;2023-03-21T05:20:13;101476.56;;;8.14;84.55
54920;BME280;63804;53.120;8.764;2023-03-21T05:22:42;101469.69;;;8.11;84.73
54920;BME280;63804;53.120;8.764;2023-03-21T05:25:11;101473.25;;;8.10;84.43
54920;BME280;63804;53.120;8.764;2023-03-21T05:27:38;101476.00;;;8.09;84.71
54920;BME280;63804;53.120;8.764;2023-03-21T05:30:16;101477.63;;;8.11;84.69
54920;BME280;63804;53.120;8.764;2023-03-21T05:32:42;101469.56;;;8.13;84.70
54920;BME280;63804;53.120;8.764;2023-03-21T05:35:08;101471.28;;;8.14;84.52
54920;BME280;63804;53.120;8.764;2023-03-21T05:37:34;101470.31;;;8.15;84.24
54920;BME280;63804;53.120;8.764;2023-03-21T05:40:00;101473.06;;;8.13;84.25
54920;BME280;63804;53.120;8.764;2023-03-21T05:42:25;101465.22;;;8.12;84.50
54920;BME280;63804;53.120;8.764;2023-03-21T05:44:51;101464.28;;;8.13;84.39
54920;BME280;63804;53.120;8.764;2023-03-21T05:47:17;101467.78;;;8.13;84.37
54920;BME280;63804;53.120;8.764;2023-03-21T05:49:43;101464.00;;;8.17;84.14
54920;BME280;63804;53.120;8.764;2023-03-21T05:52:09;101460.22;;;8.21;83.97
54920;BME280;63804;53.120;8.764;2023-03-21T05:54:34;101455.63;;;8.25;83.56
54920;BME280;63804;53.120;8.764;2023-03-21T05:57:01;101455.78;;;8.22;83.63
54920;BME280;63804;53.120;8.764;2023-03-21T05:59:27;101458.88;;;8.14;84.26
54920;BME280;63804;53.120;8.764;2023-03-21T06:01:52;101453.53;;;8.16;84.04
54920;BME280;63804;53.120;8.764;2023-03-21T06:04:18;101455.09;;;8.18;84.00
54920;BME280;63804;53.120;8.764;2023-03-21T06:06:43;101456.00;;;8.19;83.93
54920;BME280;63804;53.120;8.764;2023-03-21T06:09:09;101460.91;;;8.25;83.96
54920;BME280;63804;53.120;8.764;2023-03-21T06:11:36;101453.75;;;8.27;83.55
54920;BME280;63804;53.120;8.764;2023-03-21T06:14:02;101457.91;;;8.31;83.45
54920;BME280;63804;53.120;8.764;2023-03-21T06:16:28;101448.34;;;8.29;83.68
54920;BME280;63804;53.120;8.764;2023-03-21T06:18:54;101463.09;;;8.33;83.39
54920;BME280;63804;53.120;8.764;2023-03-21T06:21:20;101461.47;;;8.30;83.54
54920;BME280;63804;53.120;8.764;2023-03-21T06:23:46;101461.41;;;8.32;83.42
54920;BME280;63804;53.120;8.764;2023-03-21T06:26:12;101457.06;;;8.31;83.67
54920;BME280;63804;53.120;8.764;2023-03-21T06:28:38;101458.28;;;8.39;83.11
54920;BME280;63804;53.120;8.764;2023-03-21T06:31:04;101458.66;;;8.33;83.50
54920;BME280;63804;53.120;8.764;2023-03-21T06:33:29;101459.41;;;8.35;83.33
54920;BME280;63804;53.120;8.764;2023-03-21T06:36:02;101458.47;;;8.36;83.23
54920;BME280;63804;53.120;8.764;2023-03-21T06:38:27;101461.00;;;8.38;83.09
54920;BME280;63804;53.120;8.764;2023-03-21T06:40:53;101463.28;;;8.44;82.79
54920;BME280;63804;53.120;8.764;2023-03-21T06:43:18;101457.03;;;8.45;82.84
54920;BME280;63804;53.120;8.764;2023-03-21T06:45:44;101459.03;;;8.56;82.38
54920;BME280;63804;53.120;8.764;2023-03-21T06:48:10;101457.22;;;8.56;82.38
54920;BME280;63804;53.120;8.764;2023-03-21T06:50:36;101464.44;;;8.54;82.16
54920;BME280;63804;53.120;8.764;2023-03-21T06:53:02;101464.03;;;8.60;82.02
54920;BME280;63804;53.120;8.764;2023-03-21T06:55:27;101455.44;;;8.57;82.22
54920;BME280;63804;53.120;8.764;2023-03-21T06:57:56;101455.81;;;8.65;81.99
54920;BME280;63804;53.120;8.764;2023-03-21T07:00:22;101462.03;;;8.64;81.91
54920;BME280;63804;53.120;8.764;2023-03-21T07:02:48;101458.84;;;8.59;82.27
54920;BME280;63804;53.120;8.764;2023-03-21T07:05:15;101463.47;;;8.55;82.39
54920;BME280;63804;53.120;8.764;2023-03-21T07:07:41;101461.13;;;8.65;82.05
54920;BME280;63804;53.120;8.764;2023-03-21T07:10:07;101459.41;;;8.64;82.25
54920;BME280;63804;53.120;8.764;2023-03-21T07:12:33;101461.66;;;8.70;81.98
54920;BME280;63804;53.120;8.764;2023-03-21T07:15:01;101454.38;;;8.73;81.64
54920;BME280;63804;53.120;8.764;2023-03-21T07:17:27;101464.03;;;8.74;81.82
54920;BME280;63804;53.120;8.764;2023-03-21T07:19:52;101466.19;;;8.68;82.18
54920;BME280;63804;53.120;8.764;2023-03-21T07:22:18;101460.53;;;8.74;81.82
54920;BME280;63804;53.120;8.764;2023-03-21T07:24:44;101461.19;;;8.63;82.44
54920;BME280;63804;53.120;8.764;2023-03-21T07:27:18;101464.50;;;8.67;82.05
54920;BME280;63804;53.120;8.764;2023-03-21T07:29:50;101460.34;;;8.63;82.42
54920;BME280;63804;53.120;8.764;2023-03-21T07:32:15;101465.16;;;8.70;81.95
54920;BME280;63804;53.120;8.764;2023-03-21T07:34:41;101463.06;;;8.76;81.66
54920;BME280;63804;53.120;8.764;2023-03-21T07:37:06;101454.47;;;8.72;82.05
54920;BME280;63804;53.120;8.764;2023-03-21T07:39:32;101460.91;;;8.68;82.13
54920;BME280;63804;53.120;8.764;2023-03-21T07:41:59;101468.47;;;8.74;82.02
54920;BME280;63804;53.120;8.764;2023-03-21T07:44:25;101461.38;;;8.74;81.98
54920;BME280;63804;53.120;8.764;2023-03-21T07:46:51;101463.06;;;8.76;81.71
54920;BME280;63804;53.120;8.764;2023-03-21T07:49:17;101468.00;;;8.82;81.75
54920;BME280;63804;53.120;8.764;2023-03-21T07:51:42;101456.84;;;8.77;81.70
54920;BME280;63804;53.120;8.764;2023-03-21T07:54:08;101463.00;;;8.77;81.60
54920;BME280;63804;53.120;8.764;2023-03-21T07:56:33;101453.06;;;8.81;81.63
54920;BME280;63804;53.120;8.764;2023-03-21T07:58:59;101460.69;;;8.85;81.42
54920;BME280;63804;53.120;8.764;2023-03-21T08:01:25;101461.25;;;8.90;81.39
54920;BME280;63804;53.120;8.764;2023-03-21T08:03:51;101464.31;;;8.84;81.70
54920;BME280;63804;53.120;8.764;2023-03-21T08:06:21;101462.75;;;8.94;81.26
54920;BME280;63804;53.120;8.764;2023-03-21T08:08:47;101468.06;;;8.94;81.45
54920;BME280;63804;53.120;8.764;2023-03-21T08:11:13;101459.75;;;8.86;81.57
54920;BME280;63804;53.120;8.764;2023-03-21T08:13:39;101458.09;;;8.98;81.45
54920;BME280;63804;53.120;8.764;2023-03-21T08:16:04;101464.84;;;9.04;80.92
54920;BME280;63804;53.120;8.764;2023-03-21T08:18:31;101467.97;;;8.96;81.43
54920;BME280;63804;53.120;8.764;2023-03-21T08:20:57;101456.91;;;8.89;81.58
54920;BME280;63804;53.120;8.764;2023-03-21T08:23:23;101464.47;;;8.95;81.51
54920;BME280;63804;53.120;8.764;2023-03-21T08:25:53;101453.94;;;9.08;80.89
54920;BME280;63804;53.120;8.764;2023-03-21T08:28:19;101458.28;;;9.09;80.77
54920;BME280;63804;53.120;8.764;2023-03-21T08:30:46;101456.13;;;9.02;81.40
54920;BME280;63804;53.120;8.764;2023-03-21T08:33:12;101450.63;;;9.05;81.23
54920;BME280;63804;53.120;8.764;2023-03-21T08:35:38;101460.75;;;8.98;81.68
54920;BME280;63804;53.120;8.764;2023-03-21T08:38:04;101454.63;;;8.97;81.90
54920;BME280;63804;53.120;8.764;2023-03-21T08:40:30;101451.59;;;9.04;81.46
54920;BME280;63804;53.120;8.764;2023-03-21T08:42:56;101455.28;;;9.01;81.56
54920;BME280;63804;53.120;8.764;2023-03-21T08:45:21;101447.00;;;9.06;81.64
54920;BME280;63804;53.120;8.764;2023-03-21T08:47:48;101451.75;;;9.15;81.21
54920;BME280;63804;53.120;8.764;2023-03-21T08:50:19;101447.94;;;9.19;81.18
54920;BME280;63804;53.120;8.764;2023-03-21T08:52:45;101457.69;;;9.18;80.94
54920;BME280;63804;53.120;8.764;2023-03-21T08:55:11;101452.47;;;9.17;81.43
54920;BME280;63804;53.120;8.764;2023-03-21T08:57:37;101456.44;;;9.24;80.54
54920;BME280;63804;53.120;8.764;2023-03-21T09:00:05;101455.59;;;9.23;80.96
54920;BME280;63804;53.120;8.764;2023-03-21T09:02:35;101446.44;;;9.15;81.41
54920;BME280;63804;53.120;8.764;2023-03-21T09:05:01;101448.31;;;9.13;81.36
54920;BME280;63804;53.120;8.764;2023-03-21T09:07:26;101448.13;;;9.16;81.40
54920;BME280;63804;53.120;8.764;2023-03-21T09:09:52;101455.25;;;9.15;81.31
54920;BME280;63804;53.120;8.764;2023-03-21T09:12:18;101452.97;;;9.09;81.66
54920;BME280;63804;53.120;8.764;2023-03-21T09:14:43;101444.38;;;9.06;81.70
54920;BME280;63804;53.120;8.764;2023-03-21T09:17:09;101439.41;;;9.14;81.71
54920;BME280;63804;53.120;8.764;2023-03-21T09:19:35;101437.66;;;9.14;81.86
54920;BME280;63804;53.120;8.764;2023-03-21T09:22:03;101439.34;;;9.15;81.69
54920;BME280;63804;53.120;8.764;2023-03-21T09:24:42;101443.38;;;9.21;81.63
54920;BME280;63804;53.120;8.764;2023-03-21T09:27:10;101440.44;;;9.26;81.46
54920;BME280;63804;53.120;8.764;2023-03-21T09:29:36;101441.81;;;9.31;81.12
54920;BME280;63804;53.120;8.764;2023-03-21T09:32:01;101451.59;;;9.31;80.87
54920;BME280;63804;53.120;8.764;2023-03-21T09:34:28;101445.53;;;9.29;80.63
54920;BME280;63804;53.120;8.764;2023-03-21T09:36:54;101454.53;;;9.26;81.09
54920;BME280;63804;53.120;8.764;2023-03-21T09:39:22;101453.97;;;9.21;81.07
54920;BME280;63804;53.120;8.764;2023-03-21T09:42:06;101446.16;;;9.32;80.58
54920;BME280;63804;53.120;8.764;2023-03-21T09:44:51;101449.81;;;9.44;80.13
54920;BME280;63804;53.120;8.764;2023-03-21T09:47:21;101453.31;;;9.44;79.95
54920;BME280;63804;53.120;8.764;2023-03-21T09:49:56;101453.53;;;9.41;80.30
54920;BME280;63804;53.120;8.764;2023-03-21T09:52:29;101452.56;;;9.42;79.71
54920;BME280;63804;53.120;8.764;2023-03-21T09:54:57;101446.75;;;9.37;80.21
54920;BME280;63804;53.120;8.764;2023-03-21T09:57:33;101458.22;;;9.51;79.65
54920;BME280;63804;53.120;8.764;2023-03-21T10:00:04;101453.44;;;9.43;79.86
54920;BME280;63804;53.120;8.764;2023-03-21T10:02:46;101446.13;;;9.46;80.17
54920;BME280;63804;53.120;8.764;2023-03-21T10:05:23;101446.66;;;9.52;80.01
54920;BME280;63804;53.120;8.764;2023-03-21T10:07:57;101439.78;;;9.62;80.18
54920;BME280;63804;53.120;8.764;2023-03-21T10:10:31;101437.44;;;9.57;80.38
54920;BME280;63804;53.120;8.764;2023-03-21T10:12:59;101441.91;;;9.57;80.74
54920;BME280;63804;53.120;8.764;2023-03-21T10:15:26;101437.28;;;9.73;80.30
54920;BME280;63804;53.120;8.764;2023-03-21T10:18:05;101441.94;;;9.69;80.78
54920;BME280;63804;53.120;8.764;2023-03-21T10:20:33;101443.22;;;9.64;80.75
54920;BME280;63804;53.120;8.764;2023-03-21T10:23:02;101435.13;;;9.53;81.33
54920;BME280;63804;53.120;8.764;2023-03-21T10:25:56;101443.47;;;9.46;82.11
54920;BME280;63804;53.120;8.764;2023-03-21T10:28:26;101430.19;;;9.46;81.87
54920;BME280;63804;53.120;8.764;2023-03-21T10:30:55;101423.63;;;9.52;82.12
54920;BME280;63804;53.120;8.764;2023-03-21T10:33:25;101429.56;;;9.56;81.86
54920;BME280;63804;53.120;8.764;2023-03-21T10:35:58;101429.38;;;9.59;81.66
54920;BME280;63804;53.120;8.764;2023-03-21T10:38:26;101419.63;;;9.59;81.64
54920;BME280;63804;53.120;8.764;2023-03-21T10:40:53;101417.19;;;9.56;81.75
54920;BME280;63804;53.120;8.764;2023-03-21T10:45:50;101415.59;;;9.66;81.57
54920;BME280;63804;53.120;8.764;2023-03-21T10:48:16;101417.19;;;9.69;81.60
54920;BME280;63804;53.120;8.764;2023-03-21T10:50:42;101409.31;;;9.55;81.89
54920;BME280;63804;53.120;8.764;2023-03-21T10:53:16;101416.81;;;9.48;82.37
54920;BME280;63804;53.120;8.764;2023-03-21T10:55:42;101416.81;;;9.48;82.76
54920;BME280;63804;53.120;8.764;2023-03-21T10:58:17;101417.16;;;9.43;82.99
54920;BME280;63804;53.120;8.764;2023-03-21T11:00:57;101412.41;;;9.49;82.90
54920;BME280;63804;53.120;8.764;2023-03-21T11:03:30;101407.00;;;9.63;82.37
54920;BME280;63804;53.120;8.764;2023-03-21T11:08:49;101403.28;;;9.65;82.04
54920;BME280;63804;53.120;8.764;2023-03-21T11:11:27;101405.41;;;9.60;82.26
54920;BME280;63804;53.120;8.764;2023-03-21T11:14:00;101413.47;;;9.59;82.25
54920;BME280;63804;53.120;8.764;2023-03-21T11:16:37;101392.56;;;9.67;82.24
54920;BME280;63804;53.120;8.764;2023-03-21T11:19:25;101399.34;;;9.71;81.95
54920;BME280;63804;53.120;8.764;2023-03-21T11:21:52;101400.66;;;9.78;81.65
54920;BME280;63804;53.120;8.764;2023-03-21T11:24:18;101390.63;;;9.83;81.21
54920;BME280;63804;53.120;8.764;2023-03-21T11:26:47;101395.47;;;9.89;81.37
54920;BME280;63804;53.120;8.764;2023-03-21T11:29:22;101395.69;;;9.86;81.52
54920;BME280;63804;53.120;8.764;2023-03-21T11:31:50;101395.25;;;9.80;82.05
54920;BME280;63804;53.120;8.764;2023-03-21T11:34:27;101397.41;;;9.87;81.80
54920;BME280;63804;53.120;8.764;2023-03-21T11:36:58;101385.84;;;9.88;81.53
54920;BME280;63804;53.120;8.764;2023-03-21T11:39:43;101398.56;;;9.96;81.87
54920;BME280;63804;53.120;8.764;2023-03-21T11:42:26;101389.75;;;9.95;81.54
54920;BME280;63804;53.120;8.764;2023-03-21T11:45:23;101386.56;;;9.90;81.71
54920;BME280;63804;53.120;8.764;2023-03-21T11:47:51;101385.00;;;10.13;80.52
54920;BME280;63804;53.120;8.764;2023-03-21T11:50:39;101379.53;;;10.28;80.13
54920;BME280;63804;53.120;8.764;2023-03-21T11:56:24;101376.50;;;9.95;81.53
54920;BME280;63804;53.120;8.764;2023-03-21T12:04:34;101366.91;;;9.80;81.74
54920;BME280;63804;53.120;8.764;2023-03-21T12:12:55;101354.28;;;9.97;81.29
54920;BME280;63804;53.120;8.764;2023-03-21T12:15:32;101353.66;;;9.93;81.39
54920;BME280;63804;53.120;8.764;2023-03-21T12:19:09;101349.00;;;9.84;81.85
54920;BME280;63804;53.120;8.764;2023-03-21T12:23:59;101345.50;;;9.83;81.66
54920;BME280;63804;53.120;8.764;2023-03-21T12:26:30;101344.59;;;9.83;81.65
54920;BME280;63804;53.120;8.764;2023-03-21T12:36:58;101339.19;;;9.59;83.14
54920;BME280;63804;53.120;8.764;2023-03-21T12:39:30;101333.88;;;9.59;82.83
54920;BME280;63804;53.120;8.764;2023-03-21T12:44:53;101331.13;;;9.73;82.43
54920;BME280;63804;53.120;8.764;2023-03-21T12:47:25;101330.16;;;9.74;83.10
54920;BME280;63804;53.120;8.764;2023-03-21T12:52:23;101312.97;;;10.05;81.38
54920;BME280;63804;53.120;8.764;2023-03-21T12:54:54;101323.50;;;10.07;81.36
54920;BME280;63804;53.120;8.764;2023-03-21T12:57:29;101317.44;;;10.05;81.97
54920;BME280;63804;53.120;8.764;2023-03-21T13:02:35;101317.34;;;10.06;81.72
54920;BME280;63804;53.120;8.764;2023-03-21T13:05:09;101314.59;;;9.95;82.31
54920;BME280;63804;53.120;8.764;2023-03-21T13:07:48;101313.50;;;9.98;81.99
54920;BME280;63804;53.120;8.764;2023-03-21T13:10:17;101314.28;;;10.00;82.00
54920;BME280;63804;53.120;8.764;2023-03-21T13:18:34;101299.72;;;9.92;82.44
54920;BME280;63804;53.120;8.764;2023-03-21T13:23:59;101291.44;;;9.97;82.18
54920;BME280;63804;53.120;8.764;2023-03-21T13:26:33;101302.69;;;10.01;81.54
54920;BME280;63804;53.120;8.764;2023-03-21T13:29:00;101294.16;;;9.83;82.00
54920;BME280;63804;53.120;8.764;2023-03-21T13:31:26;101292.44;;;9.83;82.16
54920;BME280;63804;53.120;8.764;2023-03-21T13:33:54;101294.97;;;9.85;82.08
54920;BME280;63804;53.120;8.764;2023-03-21T13:36:28;101294.00;;;9.86;81.44
54920;BME280;63804;53.120;8.764;2023-03-21T13:39:00;101293.56;;;9.79;81.75
54920;BME280;63804;53.120;8.764;2023-03-21T13:41:34;101291.88;;;9.91;81.20
54920;BME280;63804;53.120;8.764;2023-03-21T13:59:10;101266.78;;;9.82;80.68
54920;BME280;63804;53.120;8.764;2023-03-21T14:01:44;101266.78;;;9.82;80.80
54920;BME280;63804;53.120;8.764;2023-03-21T14:04:25;101260.34;;;9.86;80.66
54920;BME280;63804;53.120;8.764;2023-03-21T14:06:57;101258.88;;;9.95;80.49
54920;BME280;63804;53.120;8.764;2023-03-21T14:11:55;101258.94;;;10.06;80.11
54920;BME280;63804;53.120;8.764;2023-03-21T14:14:24;101248.94;;;10.10;79.83
54920;BME280;63804;53.120;8.764;2023-03-21T14:16:54;101243.66;;;10.10;80.30
54920;BME280;63804;53.120;8.764;2023-03-21T14:19:20;101248.06;;;10.09;80.35
54920;BME280;63804;53.120;8.764;2023-03-21T14:21:52;101231.00;;;10.13;80.50
54920;BME280;63804;53.120;8.764;2023-03-21T14:24:19;101238.63;;;10.18;80.30
54920;BME280;63804;53.120;8.764;2023-03-21T14:26:53;101230.75;;;10.16;80.10
54920;BME280;63804;53.120;8.764;2023-03-21T14:29:24;101236.44;;;9.99;80.88
54920;BME280;63804;53.120;8.764;2023-03-21T14:31:50;101232.63;;;9.90;81.19
54920;BME280;63804;53.120;8.764;2023-03-21T14:34:16;101219.03;;;9.82;81.62
54920;BME280;63804;53.120;8.764;2023-03-21T14:36:43;101225.31;;;9.81;81.55
54920;BME280;63804;53.120;8.764;2023-03-21T14:39:35;101221.06;;;9.91;81.43
54920;BME280;63804;53.120;8.764;2023-03-21T14:42:11;101210.78;;;9.87;81.63
54920;BME280;63804;53.120;8.764;2023-03-21T14:44:41;101208.66;;;9.92;81.32